Time;durP1;ratioP1;P1;durP2;ratioP2;P2;SDS_P1;SDS_P2;PMS_P1;PMS_P2;Temp;Humidity;BMP_temperature;BMP_pressure;BME280_temperature;BME280_humidity;BME280_pressure;Samples;Min_cycle;Max_cycle;Signal;HPM_P1;HPM_P2
2022/12/30 00:00:25;;;;;;;3.85;1.17;;;7.60;99.90;;;;;;5034817;28;20041;-67
2022/12/30 00:02:51;;;;;;;4.47;1.70;;;6.60;99.90;;;;;;5034784;28;20048;-67
2022/12/30 00:05:16;;;;;;;4.85;1.48;;;6.60;99.90;;;;;;5034328;28;20408;-68
2022/12/30 00:07:42;;;;;;;6.43;1.20;;;6.60;99.90;;;;;;5016635;28;20045;-67
2022/12/30 00:10:08;;;;;;;17.88;2.20;;;6.50;99.90;;;;;;5033965;28;20034;-67
2022/12/30 00:35:15;;;;;;;3.67;1.60;;;6.40;99.90;;;;;;5034112;28;20037;-68
2022/12/30 00:37:40;;;;;;;11.43;1.80;;;6.40;99.90;;;;;;5000139;28;20067;-67
2022/12/30 00:40:06;;;;;;;2.75;1.00;;;6.30;99.90;;;;;;5034080;28;20116;-68
2022/12/30 00:45:16;;;;;;;12.50;1.67;;;6.30;99.90;;;;;;5034041;28;20045;-68
2022/12/30 00:47:43;;;;;;;7.20;1.05;;;6.30;99.90;;;;;;5033919;28;20468;-68
2022/12/30 00:58:21;;;;;;;4.07;2.10;;;6.20;99.90;;;;;;5015727;28;20042;-67
2022/12/30 01:00:48;;;;;;;5.90;2.20;;;6.10;99.90;;;;;;5033751;28;20447;-68
2022/12/30 01:03:13;;;;;;;7.22;1.35;;;6.10;99.90;;;;;;5033605;28;20051;-67
2022/12/30 01:05:39;;;;;;;5.18;1.50;;;6.10;99.90;;;;;;5033682;28;20501;-68
2022/12/30 01:08:05;;;;;;;5.20;0.77;;;6.10;99.90;;;;;;5033215;28;20094;-67
2022/12/30 01:10:31;;;;;;;8.57;2.25;;;6.10;99.90;;;;;;5015602;28;20033;-67
2022/12/30 01:12:57;;;;;;;5.43;1.02;;;6.10;99.90;;;;;;5033491;28;20121;-68
2022/12/30 01:15:22;;;;;;;4.32;0.93;;;6.10;99.90;;;;;;5015415;28;20048;-68
2022/12/30 01:17:48;;;;;;;2.05;0.93;;;6.10;99.90;;;;;;5033127;28;20041;-67
2022/12/30 01:20:14;;;;;;;9.82;1.60;;;6.10;99.90;;;;;;5033388;28;20041;-67
2022/12/30 01:22:39;;;;;;;3.25;1.42;;;6.10;99.90;;;;;;5032703;28;20120;-67
2022/12/30 01:25:05;;;;;;;4.82;1.02;;;6.10;99.90;;;;;;5033359;28;20041;-68
2022/12/30 01:27:32;;;;;;;6.45;1.35;;;6.10;99.90;;;;;;5015175;28;20347;-67
2022/12/30 01:29:58;;;;;;;3.13;0.70;;;6.10;99.90;;;;;;5033364;28;20473;-67
2022/12/30 01:32:24;;;;;;;3.20;0.90;;;6.10;99.90;;;;;;5032983;28;20073;-67
2022/12/30 01:34:54;;;;;;;6.60;1.23;;;6.00;99.90;;;;;;5033195;28;20053;-68
2022/12/30 01:37:20;;;;;;;4.90;1.20;;;6.00;99.90;;;;;;5015212;28;20068;-69
2022/12/30 01:39:46;;;;;;;9.32;1.48;;;6.10;99.90;;;;;;5033165;28;20037;-68
2022/12/30 01:42:23;;;;;;;6.03;1.65;;;6.10;99.90;;;;;;5032932;28;20037;-67
2022/12/30 01:44:48;;;;;;;5.95;1.00;;;6.10;99.90;;;;;;5015570;28;20569;-67
2022/12/30 01:47:40;;;;;;;6.80;1.30;;;6.10;99.90;;;;;;5032745;28;20120;-67
2022/12/30 01:50:09;;;;;;;3.33;1.00;;;6.10;99.90;;;;;;5033108;28;20467;-67
2022/12/30 01:52:37;;;;;;;3.25;0.93;;;6.10;99.90;;;;;;5033158;28;20037;-68
2022/12/30 01:55:08;;;;;;;2.92;1.13;;;6.10;99.90;;;;;;5033069;28;20401;-68
2022/12/30 01:57:36;;;;;;;8.52;1.42;;;6.00;99.90;;;;;;5032681;28;20045;-68
2022/12/30 02:00:04;;;;;;;7.72;1.02;;;6.00;99.90;;;;;;5032863;28;20081;-67
2022/12/30 02:02:31;;;;;;;6.78;0.82;;;6.00;99.90;;;;;;5032705;28;20081;-67
2022/12/30 02:04:58;;;;;;;2.90;1.08;;;5.90;99.90;;;;;;5032448;28;20058;-67
2022/12/30 02:07:33;;;;;;;2.13;0.82;;;5.90;99.90;;;;;;5032840;28;20057;-67
2022/12/30 02:10:00;;;;;;;2.97;1.02;;;5.90;99.90;;;;;;5033251;28;20033;-67
2022/12/30 02:12:25;;;;;;;5.88;1.63;;;5.80;99.90;;;;;;5014893;28;20034;-67
2022/12/30 02:14:54;;;;;;;13.77;1.20;;;5.80;99.90;;;;;;5032885;28;20045;-68
2022/12/30 02:17:32;;;;;;;7.15;1.00;;;5.70;99.90;;;;;;5015120;28;20124;-67
2022/12/30 02:19:57;;;;;;;5.40;1.02;;;5.80;99.90;;;;;;5032783;28;20050;-67
2022/12/30 02:22:44;;;;;;;8.43;1.52;;;5.80;99.90;;;;;;5014645;28;20057;-68
2022/12/30 02:25:13;;;;;;;9.25;1.30;;;5.70;99.90;;;;;;5032642;28;20045;-67
2022/12/30 02:27:50;;;;;;;3.83;1.42;;;5.70;99.90;;;;;;5014606;28;20046;-67
2022/12/30 02:30:28;;;;;;;5.93;1.30;;;5.70;99.90;;;;;;5032657;28;20499;-67
2022/12/30 02:33:16;;;;;;;8.63;1.75;;;5.70;99.90;;;;;;5033934;28;20091;-67
2022/12/30 02:36:33;;;;;;;5.93;1.63;;;5.70;99.90;;;;;;5036243;28;20045;-66
2022/12/30 02:39:24;;;;;;;2.85;1.20;;;5.70;99.90;;;;;;4939795;29;20471;-68
2022/12/30 02:44:57;;;;;;;4.53;1.30;;;5.60;99.90;;;;;;5025970;28;19921;-67
2022/12/30 02:47:46;;;;;;;5.43;1.88;;;5.60;99.90;;;;;;5036296;28;20084;-67
2022/12/30 02:53:07;;;;;;;7.57;1.05;;;5.60;99.90;;;;;;5035953;28;20041;-66
2022/12/30 02:55:32;;;;;;;4.75;0.85;;;5.60;99.90;;;;;;5036188;28;20048;-66
2022/12/30 02:57:58;;;;;;;4.18;1.05;;;5.50;99.90;;;;;;5035973;28;20480;-67
2022/12/30 03:03:57;;;;;;;2.47;0.73;;;5.60;99.90;;;;;;4936418;29;20447;-66
2022/12/30 03:06:49;;;;;;;4.60;1.65;;;5.60;99.90;;;;;;4936283;29;20048;-66
2022/12/30 03:09:39;;;;;;;6.00;1.02;;;5.60;99.90;;;;;;5019152;28;20141;-67
2022/12/30 03:12:13;;;;;;;8.57;1.88;;;5.50;99.90;;;;;;5035878;28;20041;-67
2022/12/30 03:14:53;;;;;;;3.65;1.08;;;5.50;99.90;;;;;;5035485;28;20045;-66
2022/12/30 03:17:31;;;;;;;5.00;1.42;;;5.60;99.90;;;;;;5017972;28;20049;-66
2022/12/30 03:20:01;;;;;;;6.85;1.42;;;5.50;99.90;;;;;;5035694;28;20049;-67
2022/12/30 03:28:06;;;;;;;5.68;1.73;;;5.50;99.90;;;;;;5035449;28;20408;-67
2022/12/30 03:30:35;;;;;;;4.47;1.52;;;5.60;99.90;;;;;;5035496;28;20049;-68
2022/12/30 03:33:02;;;;;;;4.30;0.85;;;5.50;99.90;;;;;;5035533;28;20386;-67
2022/12/30 03:35:31;;;;;;;5.55;1.10;;;5.50;99.90;;;;;;5034196;28;20037;-67
2022/12/30 03:37:58;;;;;;;9.10;1.63;;;5.50;99.90;;;;;;5017650;28;20112;-67
2022/12/30 03:40:30;;;;;;;4.40;1.38;;;5.50;99.90;;;;;;5035304;28;20500;-67
2022/12/30 03:42:56;;;;;;;4.25;1.77;;;5.50;99.90;;;;;;5035389;28;20404;-68
2022/12/30 03:45:22;;;;;;;3.72;1.73;;;5.50;99.90;;;;;;5016427;28;20444;-67
2022/12/30 03:47:48;;;;;;;1.92;0.90;;;5.50;99.90;;;;;;5035142;28;20040;-67
2022/12/30 03:50:13;;;;;;;9.70;1.48;;;5.40;99.90;;;;;;5035043;28;20493;-67
2022/12/30 03:52:39;;;;;;;6.97;1.50;;;5.40;99.90;;;;;;5035026;28;20037;-67
2022/12/30 03:55:05;;;;;;;6.40;1.35;;;5.40;99.90;;;;;;5034957;28;20041;-68
2022/12/30 03:57:31;;;;;;;2.58;0.90;;;5.40;99.90;;;;;;5034795;28;20073;-67
2022/12/30 03:59:57;;;;;;;13.63;1.50;;;5.40;99.90;;;;;;5034753;28;20155;-67
2022/12/30 04:02:22;;;;;;;4.68;1.10;;;5.30;99.90;;;;;;5034894;28;20059;-67
2022/12/30 04:04:48;;;;;;;4.60;1.75;;;5.30;99.90;;;;;;5034801;28;20136;-67
2022/12/30 04:07:14;;;;;;;2.67;1.15;;;5.30;99.90;;;;;;5034731;28;20075;-67
2022/12/30 04:09:39;;;;;;;3.13;2.17;;;5.30;99.90;;;;;;5034795;28;20080;-67
2022/12/30 04:12:05;;;;;;;2.95;1.13;;;5.30;99.90;;;;;;5034683;28;20401;-67
2022/12/30 04:14:31;;;;;;;3.90;1.13;;;5.30;99.90;;;;;;5034696;28;20160;-67
2022/12/30 04:16:56;;;;;;;6.97;1.13;;;5.20;99.90;;;;;;5034691;28;20044;-67
2022/12/30 04:19:22;;;;;;;2.95;1.20;;;5.30;99.90;;;;;;5034531;28;20043;-69
2022/12/30 04:21:48;;;;;;;4.93;1.30;;;5.30;99.90;;;;;;5034508;28;20045;-67
2022/12/30 04:24:13;;;;;;;4.60;0.95;;;5.30;99.90;;;;;;5016913;28;20045;-68
2022/12/30 04:26:40;;;;;;;4.32;1.40;;;5.30;99.90;;;;;;5016578;28;20523;-67
2022/12/30 04:29:06;;;;;;;3.08;1.35;;;5.30;99.90;;;;;;5034394;28;20064;-67
2022/12/30 04:31:32;;;;;;;4.00;1.27;;;5.70;99.90;;;;;;5034369;28;20029;-67
2022/12/30 04:33:57;;;;;;;4.63;1.45;;;5.30;99.90;;;;;;5034248;28;20041;-68
2022/12/30 04:36:23;;;;;;;1.48;0.95;;;5.20;99.90;;;;;;5016216;28;20099;-67
2022/12/30 04:38:49;;;;;;;7.38;1.52;;;5.20;99.90;;;;;;5034222;28;20476;-71
2022/12/30 04:41:15;;;;;;;7.32;1.20;;;5.20;99.90;;;;;;5016173;28;20572;-69
2022/12/30 04:43:40;;;;;;;2.80;1.27;;;5.20;99.90;;;;;;5034140;28;20073;-68
2022/12/30 04:46:06;;;;;;;4.05;1.48;;;5.20;99.90;;;;;;5016363;28;20041;-68
2022/12/30 04:48:32;;;;;;;3.33;1.85;;;5.20;99.90;;;;;;5015924;28;20049;-68
2022/12/30 04:50:58;;;;;;;6.05;2.20;;;5.20;99.90;;;;;;5016527;28;20068;-69
2022/12/30 04:53:24;;;;;;;8.73;1.92;;;5.20;99.90;;;;;;5016330;28;20041;-69
2022/12/30 04:55:54;;;;;;;9.25;1.60;;;5.10;99.90;;;;;;5033219;28;20052;-69
2022/12/30 04:58:20;;;;;;;1.90;1.30;;;5.10;99.90;;;;;;5016053;28;20124;-70
2022/12/30 05:00:48;;;;;;;9.82;1.75;;;5.00;99.90;;;;;;4999561;28;20057;-69
2022/12/30 05:03:13;;;;;;;5.47;2.20;;;5.50;99.90;;;;;;5016034;28;20076;-71
2022/12/30 05:05:39;;;;;;;8.80;1.75;;;5.00;99.90;;;;;;5033356;28;20093;-70
2022/12/30 05:08:05;;;;;;;3.63;1.38;;;5.00;99.90;;;;;;5033480;28;20052;-69
2022/12/30 05:10:33;;;;;;;2.33;1.55;;;5.00;99.90;;;;;;5033590;28;20044;-69
2022/12/30 05:12:59;;;;;;;4.97;1.20;;;5.00;99.90;;;;;;5015525;28;20041;-69
2022/12/30 05:15:24;;;;;;;4.15;1.35;;;4.90;99.90;;;;;;5015512;28;20037;-69
2022/12/30 05:17:50;;;;;;;6.25;1.38;;;4.90;99.90;;;;;;5033523;28;20077;-68
2022/12/30 05:20:15;;;;;;;3.38;1.55;;;5.00;99.90;;;;;;5033204;28;20069;-68
2022/12/30 05:22:41;;;;;;;2.10;0.88;;;4.90;99.90;;;;;;5033136;28;20046;-68
2022/12/30 05:27:51;;;;;;;3.92;1.45;;;4.90;99.90;;;;;;5015283;28;20092;-68
2022/12/30 05:30:17;;;;;;;1.00;0.88;;;4.90;99.90;;;;;;5033139;28;20441;-68
2022/12/30 05:32:43;;;;;;;11.50;2.28;;;4.90;99.90;;;;;;5033010;28;20465;-69
2022/12/30 05:35:09;;;;;;;3.08;1.30;;;4.90;99.90;;;;;;5015382;28;20041;-69
2022/12/30 05:37:34;;;;;;;3.25;1.27;;;4.90;99.90;;;;;;5015383;28;20485;-69
2022/12/30 05:40:00;;;;;;;13.52;1.08;;;4.80;99.90;;;;;;5033192;28;20064;-69
2022/12/30 05:42:25;;;;;;;1.73;1.33;;;4.80;99.90;;;;;;5033244;28;20037;-70
2022/12/30 05:44:51;;;;;;;0.70;0.70;;;4.80;99.90;;;;;;5033215;28;20041;-68
2022/12/30 05:47:16;;;;;;;1.45;1.25;;;4.80;99.90;;;;;;5033134;28;20641;-67
2022/12/30 05:49:42;;;;;;;3.75;1.08;;;4.80;99.90;;;;;;5015556;28;20393;-68
2022/12/30 05:52:07;;;;;;;7.65;1.45;;;4.90;99.90;;;;;;5015580;28;20036;-69
2022/12/30 05:54:33;;;;;;;5.65;1.35;;;4.80;99.90;;;;;;5033110;28;20468;-69
2022/12/30 05:56:59;;;;;;;13.93;1.55;;;4.70;99.90;;;;;;5015467;28;20033;-68
2022/12/30 05:59:24;;;;;;;7.93;1.23;;;4.70;99.90;;;;;;5033093;28;20033;-68
2022/12/30 06:01:50;;;;;;;5.38;1.50;;;4.70;99.90;;;;;;5032764;28;20374;-69
2022/12/30 06:04:17;;;;;;;6.60;1.85;;;4.70;99.90;;;;;;5032865;28;20033;-68
2022/12/30 06:06:43;;;;;;;3.90;1.67;;;4.70;99.90;;;;;;5032948;28;20374;-68
2022/12/30 06:09:08;;;;;;;4.72;0.70;;;4.70;99.90;;;;;;5018881;28;20048;-68
2022/12/30 06:11:34;;;;;;;7.68;1.60;;;4.70;99.90;;;;;;5037116;28;20037;-68
2022/12/30 06:14:00;;;;;;;5.68;1.48;;;4.70;99.90;;;;;;5037056;28;20041;-69
2022/12/30 06:16:25;;;;;;;2.17;0.80;;;4.70;99.90;;;;;;5036998;28;20045;-68
2022/12/30 06:18:51;;;;;;;6.63;1.35;;;4.70;99.90;;;;;;5036688;28;20052;-69
2022/12/30 06:21:16;;;;;;;2.55;0.98;;;4.60;99.90;;;;;;5036909;28;20057;-68
2022/12/30 06:23:42;;;;;;;5.88;1.98;;;4.60;99.90;;;;;;5036483;28;20049;-68
2022/12/30 06:26:08;;;;;;;4.95;1.15;;;4.60;99.90;;;;;;5036760;28;20038;-68
2022/12/30 06:28:33;;;;;;;6.75;1.20;;;4.60;99.90;;;;;;5036710;28;20073;-67
2022/12/30 06:30:59;;;;;;;4.15;1.63;;;4.60;99.90;;;;;;5036441;28;20050;-68
2022/12/30 06:33:25;;;;;;;3.03;0.98;;;4.60;99.90;;;;;;5036676;28;20038;-68
2022/12/30 06:35:51;;;;;;;4.00;1.00;;;4.60;99.90;;;;;;5036668;28;20037;-68
2022/12/30 06:38:17;;;;;;;2.00;0.70;;;4.70;99.90;;;;;;5036567;28;20108;-68
2022/12/30 06:40:44;;;;;;;7.20;2.00;;;4.70;99.90;;;;;;5036562;28;20520;-68
2022/12/30 06:43:10;;;;;;;5.10;1.15;;;4.70;99.90;;;;;;5036493;28;20094;-68
2022/12/30 06:45:36;;;;;;;1.63;0.80;;;4.70;99.90;;;;;;5018858;28;20041;-67
2022/12/30 06:48:03;;;;;;;1.02;0.52;;;4.70;99.90;;;;;;5036291;28;20043;-67
2022/12/30 06:50:29;;;;;;;7.45;1.20;;;4.70;99.90;;;;;;5036113;28;20038;-67
2022/12/30 06:52:54;;;;;;;8.00;1.63;;;4.70;99.90;;;;;;5036332;28;20045;-67
2022/12/30 06:55:21;;;;;;;1.77;1.05;;;4.70;99.90;;;;;;5036237;28;20112;-67
2022/12/30 06:57:48;;;;;;;3.22;1.30;;;4.60;99.90;;;;;;5036008;28;20052;-67
2022/12/30 07:00:14;;;;;;;1.83;0.98;;;4.60;99.90;;;;;;5018403;28;20079;-67
2022/12/30 07:02:39;;;;;;;6.32;1.25;;;4.60;99.90;;;;;;5036201;28;20060;-68
2022/12/30 07:05:06;;;;;;;4.20;0.70;;;4.60;99.90;;;;;;5035692;28;20487;-67
2022/12/30 07:07:31;;;;;;;3.13;1.52;;;4.60;99.90;;;;;;5035905;28;20412;-67
2022/12/30 07:09:57;;;;;;;7.97;1.17;;;4.60;99.90;;;;;;5035710;28;20033;-67
2022/12/30 07:12:23;;;;;;;6.03;1.23;;;4.60;99.90;;;;;;5017078;28;20033;-67
2022/12/30 07:14:48;;;;;;;1.92;0.77;;;4.60;99.90;;;;;;5035081;28;20037;-67
2022/12/30 07:17:14;;;;;;;5.93;1.23;;;4.60;99.90;;;;;;5034927;28;20049;-67
2022/12/30 07:19:40;;;;;;;4.50;0.93;;;4.60;99.90;;;;;;5033690;28;20033;-67
2022/12/30 07:22:05;;;;;;;1.13;0.80;;;4.60;99.90;;;;;;5034583;28;20473;-67
2022/12/30 07:24:31;;;;;;;0.52;0.52;;;4.60;99.90;;;;;;5034848;28;20520;-67
2022/12/30 07:26:57;;;;;;;5.72;0.85;;;4.70;99.90;;;;;;5035014;28;20029;-67
2022/12/30 07:29:22;;;;;;;4.60;1.05;;;4.70;99.90;;;;;;5034365;28;20091;-68
2022/12/30 07:31:48;;;;;;;4.20;1.27;;;4.70;99.90;;;;;;5034696;28;20033;-67
2022/12/30 07:34:13;;;;;;;5.93;1.15;;;4.70;99.90;;;;;;5034309;28;20538;-66
2022/12/30 07:36:39;;;;;;;1.88;0.63;;;4.70;99.90;;;;;;5034828;28;20045;-66
2022/12/30 07:39:06;;;;;;;1.83;1.05;;;4.70;99.90;;;;;;5016372;28;20041;-69
2022/12/30 07:41:32;;;;;;;1.33;0.60;;;4.70;99.90;;;;;;5034210;28;20128;-66
2022/12/30 07:43:58;;;;;;;6.65;1.17;;;4.60;99.90;;;;;;5034506;28;20091;-67
2022/12/30 07:46:23;;;;;;;1.60;0.60;;;4.60;99.90;;;;;;5034360;28;20037;-66
2022/12/30 07:48:49;;;;;;;2.70;0.90;;;4.60;99.90;;;;;;5034272;28;20055;-66
2022/12/30 07:51:16;;;;;;;1.98;0.57;;;4.70;99.90;;;;;;5034728;28;20037;-69
2022/12/30 07:53:42;;;;;;;12.35;2.08;;;4.60;99.90;;;;;;5016215;28;20476;-70
2022/12/30 07:56:09;;;;;;;5.55;1.27;;;4.60;99.90;;;;;;5016189;28;20034;-68
2022/12/30 07:58:36;;;;;;;5.10;0.80;;;4.60;99.90;;;;;;5016111;28;20044;-71
2022/12/30 08:01:06;;;;;;;2.60;1.33;;;4.60;99.90;;;;;;5016156;28;20041;-72
2022/12/30 08:03:32;;;;;;;4.53;0.93;;;4.60;99.90;;;;;;5033753;28;20087;-72
2022/12/30 08:06:06;;;;;;;3.03;0.82;;;4.60;99.90;;;;;;5015876;28;20053;-66
2022/12/30 08:08:33;;;;;;;4.03;1.38;;;4.60;99.90;;;;;;5015902;28;20049;-67
2022/12/30 08:10:59;;;;;;;1.75;1.02;;;4.70;99.90;;;;;;5033981;28;20493;-67
2022/12/30 08:13:25;;;;;;;1.58;0.60;;;4.70;99.90;;;;;;5033843;28;20073;-67
2022/12/30 08:15:50;;;;;;;0.75;0.75;;;4.70;99.90;;;;;;5033582;28;20191;-66
2022/12/30 08:18:16;;;;;;;5.88;1.20;;;4.80;99.90;;;;;;5033496;28;20038;-67
2022/12/30 08:20:42;;;;;;;3.55;1.13;;;4.80;99.90;;;;;;5033775;28;20496;-67
2022/12/30 08:23:08;;;;;;;9.75;1.52;;;4.80;99.90;;;;;;5033704;28;20484;-67
2022/12/30 08:25:34;;;;;;;7.47;1.20;;;4.90;99.90;;;;;;5033591;28;20041;-68
2022/12/30 08:27:59;;;;;;;5.70;1.13;;;4.90;99.90;;;;;;5033536;28;20056;-67
2022/12/30 08:30:26;;;;;;;0.68;0.68;;;4.80;99.90;;;;;;5033305;28;20116;-67
2022/12/30 08:32:51;;;;;;;1.17;0.80;;;4.90;99.90;;;;;;5033472;28;20029;-66
2022/12/30 08:35:17;;;;;;;2.13;0.90;;;4.90;99.90;;;;;;5033472;28;20049;-66
2022/12/30 08:37:43;;;;;;;5.43;0.63;;;4.90;99.90;;;;;;5033439;28;20393;-67
2022/12/30 08:40:12;;;;;;;9.68;1.50;;;4.90;99.90;;;;;;5033395;28;20044;-70
2022/12/30 08:42:37;;;;;;;5.63;1.33;;;4.90;99.90;;;;;;5015339;28;20048;-68
2022/12/30 08:45:07;;;;;;;3.83;1.42;;;4.90;99.90;;;;;;4998939;28;20045;-67
2022/12/30 08:47:33;;;;;;;8.60;1.67;;;4.90;99.90;;;;;;5033177;28;20042;-66
2022/12/30 08:49:59;;;;;;;6.75;0.95;;;4.90;99.90;;;;;;5033187;28;20085;-67
2022/12/30 08:52:24;;;;;;;10.75;2.33;;;5.00;99.90;;;;;;5015210;28;20080;-67
2022/12/30 08:54:50;;;;;;;1.90;1.10;;;5.00;99.90;;;;;;5033097;28;20036;-67
2022/12/30 08:57:16;;;;;;;1.50;0.43;;;5.10;99.90;;;;;;5033003;28;20121;-66
2022/12/30 08:59:41;;;;;;;3.95;0.82;;;5.10;99.90;;;;;;5032969;28;20053;-66
2022/12/30 09:02:12;;;;;;;8.15;1.38;;;5.20;99.90;;;;;;5014937;28;20128;-66
2022/12/30 09:04:38;;;;;;;0.98;0.65;;;5.10;99.90;;;;;;5032570;28;20061;-65
2022/12/30 09:07:04;;;;;;;3.65;1.77;;;5.20;99.90;;;;;;5031493;28;20116;-66
2022/12/30 09:09:30;;;;;;;3.20;1.23;;;5.20;99.90;;;;;;5032777;28;20396;-65
2022/12/30 09:11:56;;;;;;;2.75;1.58;;;5.20;99.90;;;;;;5032726;28;20041;-66
2022/12/30 09:14:22;;;;;;;7.47;1.20;;;5.30;99.90;;;;;;5032543;28;20079;-68
2022/12/30 09:16:48;;;;;;;9.98;1.10;;;5.30;99.90;;;;;;5014642;28;20060;-66
2022/12/30 09:19:15;;;;;;;1.52;0.60;;;5.40;99.90;;;;;;5032964;28;20476;-66
2022/12/30 09:21:40;;;;;;;4.50;1.10;;;5.40;99.90;;;;;;5032432;28;20175;-66
2022/12/30 09:24:06;;;;;;;0.55;0.43;;;5.40;99.90;;;;;;5014556;28;20120;-66
2022/12/30 09:26:32;;;;;;;3.38;0.68;;;5.80;99.90;;;;;;5014520;28;20048;-66
2022/12/30 09:28:58;;;;;;;5.78;1.33;;;5.50;99.90;;;;;;5032126;28;20124;-66
2022/12/30 09:31:24;;;;;;;2.38;1.10;;;5.60;99.90;;;;;;5032201;28;20433;-66
2022/12/30 09:33:50;;;;;;;3.30;0.65;;;5.60;99.90;;;;;;5014482;28;20053;-66
2022/12/30 09:36:16;;;;;;;0.38;0.32;;;5.60;99.90;;;;;;5032500;28;20029;-66
2022/12/30 09:38:42;;;;;;;1.85;1.08;;;5.60;99.90;;;;;;5014642;28;20065;-66
2022/12/30 09:44:42;;;;;;;3.83;0.90;;;5.80;99.90;;;;;;5014094;28;20045;-66
2022/12/30 09:47:22;;;;;;;2.10;0.63;;;5.80;99.90;;;;;;5014640;28;20052;-66
2022/12/30 09:50:30;;;;;;;2.63;0.85;;;5.90;99.90;;;;;;5031972;28;20076;-68
2022/12/30 09:53:06;;;;;;;2.17;0.80;;;5.90;99.90;;;;;;5014264;28;20046;-67
2022/12/30 09:55:50;;;;;;;3.97;1.25;;;6.00;99.90;;;;;;5031981;28;20267;-66
2022/12/30 09:58:30;;;;;;;2.63;0.80;;;6.00;99.90;;;;;;5031807;28;20033;-66
2022/12/30 10:01:12;;;;;;;2.67;0.70;;;6.10;99.90;;;;;;5014221;28;20047;-67
2022/12/30 10:03:37;;;;;;;1.77;0.90;;;6.20;99.90;;;;;;5014100;28;20375;-67
2022/12/30 10:06:29;;;;;;;4.60;0.90;;;6.20;99.90;;;;;;5031717;28;20140;-67
2022/12/30 10:09:02;;;;;;;3.90;1.13;;;6.20;99.90;;;;;;5027868;28;20456;-67
2022/12/30 10:11:33;;;;;;;8.55;0.90;;;6.30;99.90;;;;;;5032080;28;20050;-66
2022/12/30 10:14:23;;;;;;;0.32;0.32;;;6.30;99.90;;;;;;5014096;28;20076;-66
2022/12/30 10:17:18;;;;;;;1.00;0.35;;;6.40;99.90;;;;;;5031681;28;20088;-66
2022/12/30 10:19:54;;;;;;;2.10;0.90;;;6.40;99.90;;;;;;5031688;28;20037;-66
2022/12/30 10:22:45;;;;;;;6.82;1.17;;;6.50;99.90;;;;;;5013931;28;20053;-67
2022/12/30 10:25:34;;;;;;;1.10;0.70;;;6.50;99.90;;;;;;5032008;28;20480;-66
2022/12/30 10:28:01;;;;;;;0.55;0.35;;;6.60;99.90;;;;;;4997437;28;20063;-69
2022/12/30 10:30:39;;;;;;;2.67;0.65;;;6.60;99.90;;;;;;5014125;28;20081;-68
2022/12/30 10:33:16;;;;;;;1.30;0.60;;;6.70;99.90;;;;;;5031733;28;20037;-70
2022/12/30 10:35:43;;;;;;;1.10;0.60;;;6.70;99.90;;;;;;5013920;28;20046;-69
2022/12/30 10:38:22;;;;;;;1.45;0.70;;;6.80;99.90;;;;;;5031540;28;20126;-69
2022/12/30 10:41:00;;;;;;;1.75;0.85;;;6.80;99.90;;;;;;5031833;28;20049;-68
2022/12/30 10:43:34;;;;;;;2.28;0.95;;;6.90;99.90;;;;;;5014082;28;20041;-68
2022/12/30 10:46:31;;;;;;;6.50;1.58;;;6.90;99.90;;;;;;5031739;28;20054;-66
2022/12/30 10:49:09;;;;;;;2.55;0.63;;;7.00;99.90;;;;;;5031624;28;20063;-70
2022/12/30 10:51:34;;;;;;;1.70;0.88;;;7.00;99.90;;;;;;5013991;28;20049;-67
2022/12/30 10:54:00;;;;;;;6.45;1.45;;;7.00;99.90;;;;;;5032914;28;20184;-68
2022/12/30 10:56:29;;;;;;;1.40;1.00;;;7.10;99.90;;;;;;5035015;28;20052;-67
2022/12/30 10:58:59;;;;;;;3.00;0.82;;;7.10;99.90;;;;;;5017325;28;20088;-67
2022/12/30 11:01:32;;;;;;;1.13;0.75;;;7.10;99.90;;;;;;5017555;28;20553;-67
2022/12/30 11:03:58;;;;;;;2.97;1.13;;;7.20;99.90;;;;;;5034995;28;20056;-67
2022/12/30 11:06:24;;;;;;;1.42;0.68;;;7.20;99.90;;;;;;5017050;28;20062;-67
2022/12/30 11:08:51;;;;;;;0.57;0.57;;;7.20;99.90;;;;;;5035070;28;20048;-67
2022/12/30 11:11:17;;;;;;;2.72;0.73;;;7.20;99.90;;;;;;5035336;28;20044;-70
2022/12/30 11:16:41;;;;;;;0.95;0.68;;;7.20;99.90;;;;;;5035006;28;20502;-66
2022/12/30 11:19:23;;;;;;;4.25;0.70;;;7.30;99.90;;;;;;5034947;28;20049;-68
2022/12/30 11:21:53;;;;;;;4.10;1.05;;;7.30;99.90;;;;;;5034538;28;20033;-67
2022/12/30 11:24:20;;;;;;;2.43;1.17;;;7.30;99.90;;;;;;5034740;28;20044;-67
2022/12/30 11:26:48;;;;;;;4.22;0.85;;;7.30;99.90;;;;;;5000724;28;20096;-71
2022/12/30 11:29:19;;;;;;;1.70;0.98;;;7.30;99.90;;;;;;5034634;28;20045;-67
2022/12/30 11:31:50;;;;;;;4.33;0.97;;;7.40;99.90;;;;;;5000387;28;20064;-69
2022/12/30 11:34:30;;;;;;;1.73;0.70;;;7.50;99.90;;;;;;5016780;28;20137;-70
2022/12/30 11:37:15;;;;;;;3.35;0.95;;;7.40;99.90;;;;;;5034666;28;20040;-68
2022/12/30 11:39:41;;;;;;;0.85;0.55;;;7.50;99.90;;;;;;5016541;28;20064;-69
2022/12/30 11:42:28;;;;;;;1.67;0.90;;;7.50;99.90;;;;;;5016485;28;20037;-70
2022/12/30 11:45:12;;;;;;;1.65;0.93;;;7.60;99.90;;;;;;5034159;28;20116;-69
2022/12/30 11:47:44;;;;;;;2.53;0.90;;;7.60;99.90;;;;;;5034406;28;20041;-68
2022/12/30 11:50:14;;;;;;;;;;;7.60;99.90;;;;;;5017002;28;20168;-67
2022/12/30 11:52:39;;;;;;;1.88;0.73;;;7.70;99.90;;;;;;5034369;28;19925;-68
2022/12/30 11:55:05;;;;;;;1.65;0.63;;;7.70;99.90;;;;;;5016252;28;20037;-68
2022/12/30 11:57:36;;;;;;;3.13;1.20;;;7.80;99.90;;;;;;5034249;28;20048;-68
2022/12/30 12:00:23;;;;;;;;;;;7.80;99.90;;;;;;5034367;28;20492;-70
2022/12/30 12:03:14;;;;;;;8.30;1.30;;;7.80;99.90;;;;;;5016471;28;19924;-68
2022/12/30 12:05:43;;;;;;;1.85;0.63;;;7.90;99.90;;;;;;5033174;28;20140;-66
2022/12/30 12:08:22;;;;;;;3.10;0.90;;;7.90;99.90;;;;;;5033940;28;20041;-67
2022/12/30 12:10:55;;;;;;;0.43;0.43;;;8.00;99.90;;;;;;5016002;28;20045;-67
2022/12/30 12:13:29;;;;;;;1.70;0.93;;;8.00;99.90;;;;;;5016189;28;20118;-70
2022/12/30 12:15:58;;;;;;;7.03;1.67;;;8.00;99.90;;;;;;5015713;28;20136;-66
2022/12/30 12:18:36;;;;;;;1.35;0.57;;;8.00;99.90;;;;;;5033756;28;20107;-66
2022/12/30 12:21:18;;;;;;;1.25;0.70;;;8.00;99.90;;;;;;5033548;28;20042;-70
2022/12/30 12:23:58;;;;;;;;;;;7.90;99.90;;;;;;5000054;28;20041;-70
2022/12/30 12:26:47;;;;;;;2.30;1.35;;;8.00;99.90;;;;;;5015630;28;19967;-71
2022/12/30 12:29:14;;;;;;;3.00;0.77;;;8.00;99.90;;;;;;5015512;28;20404;-70
2022/12/30 12:32:04;;;;;;;4.05;1.23;;;8.00;99.90;;;;;;5015823;28;20493;-70
2022/12/30 12:34:30;;;;;;;1.20;0.53;;;8.00;99.90;;;;;;5015766;28;20048;-72
2022/12/30 12:37:41;;;;;;;2.33;0.90;;;8.00;99.90;;;;;;4999106;28;20276;-71
2022/12/30 12:40:09;;;;;;;2.45;1.15;;;8.00;99.90;;;;;;5015686;28;20044;-71
2022/12/30 12:43:00;;;;;;;1.55;0.50;;;8.00;99.90;;;;;;5015371;28;20045;-73
2022/12/30 12:45:28;;;;;;;2.17;0.77;;;8.10;99.90;;;;;;5015166;28;20048;-72
2022/12/30 12:48:15;;;;;;;0.73;0.50;;;8.30;99.90;;;;;;5015002;28;20715;-72
2022/12/30 12:51:02;;;;;;;1.45;0.63;;;8.10;99.90;;;;;;5032901;28;20037;-72
2022/12/30 12:53:49;;;;;;;0.95;0.68;;;8.20;99.90;;;;;;5015134;28;20077;-72
2022/12/30 12:56:49;;;;;;;0.40;0.32;;;8.20;99.90;;;;;;5015028;28;20048;-71
2022/12/30 12:59:29;;;;;;;0.43;0.43;;;8.30;99.90;;;;;;4984975;28;20057;-71
2022/12/30 13:02:14;;;;;;;2.45;0.75;;;8.30;99.90;;;;;;5014948;28;20041;-72
2022/12/30 13:05:18;;;;;;;0.43;0.43;;;8.30;99.90;;;;;;5014779;28;20114;-72
2022/12/30 13:08:00;;;;;;;1.08;1.00;;;8.30;99.90;;;;;;5029024;28;20129;-72
2022/12/30 13:10:57;;;;;;;0.52;0.50;;;8.40;99.90;;;;;;5014927;28;20099;-71
2022/12/30 13:13:56;;;;;;;0.85;0.45;;;8.40;99.90;;;;;;5015019;28;20041;-71
2022/12/30 13:16:28;;;;;;;5.10;0.93;;;8.40;99.90;;;;;;5014810;28;20116;-72
2022/12/30 13:18:55;;;;;;;6.00;0.70;;;8.50;99.90;;;;;;5014109;28;20095;-72
2022/12/30 13:21:24;;;;;;;3.17;0.55;;;8.50;99.90;;;;;;5014583;28;20037;-72
2022/12/30 13:23:58;;;;;;;2.53;0.40;;;8.40;99.90;;;;;;5014621;28;20053;-74
2022/12/30 13:26:27;;;;;;;0.57;0.50;;;8.40;99.90;;;;;;5014879;28;20037;-72
2022/12/30 13:28:58;;;;;;;1.08;0.85;;;8.50;99.90;;;;;;5014537;28;20037;-71
2022/12/30 13:31:54;;;;;;;0.43;0.32;;;8.50;99.90;;;;;;5014480;28;20379;-72
2022/12/30 13:34:32;;;;;;;0.65;0.43;;;8.60;99.90;;;;;;5014780;28;20060;-71
2022/12/30 13:37:28;;;;;;;2.78;0.63;;;8.60;99.90;;;;;;5032203;28;20396;-70
2022/12/30 13:40:10;;;;;;;1.33;0.70;;;8.60;99.90;;;;;;5014408;28;20191;-71
2022/12/30 13:43:02;;;;;;;1.80;0.85;;;8.60;99.90;;;;;;5014316;28;20128;-71
2022/12/30 13:45:32;;;;;;;0.77;0.55;;;8.60;99.90;;;;;;5014657;28;20041;-71
2022/12/30 13:48:10;;;;;;;2.08;0.57;;;8.70;99.90;;;;;;5014271;28;20049;-71
2022/12/30 13:50:37;;;;;;;1.50;0.70;;;8.60;99.90;;;;;;5014543;28;20549;-71
2022/12/30 13:53:05;;;;;;;0.40;0.40;;;8.70;99.90;;;;;;5014254;28;20120;-71
2022/12/30 13:55:37;;;;;;;0.57;0.50;;;8.70;99.90;;;;;;5014211;28;20042;-71
2022/12/30 13:58:27;;;;;;;1.88;0.57;;;8.80;99.90;;;;;;5014104;28;20409;-71
2022/12/30 14:01:15;;;;;;;4.40;0.60;;;8.70;99.90;;;;;;5031898;28;20459;-71
2022/12/30 14:03:40;;;;;;;0.65;0.43;;;8.80;99.90;;;;;;5032186;28;20049;-71
2022/12/30 14:06:43;;;;;;;1.27;0.45;;;8.80;99.90;;;;;;5014048;28;20467;-71
2022/12/30 14:09:24;;;;;;;1.02;0.63;;;8.80;99.90;;;;;;4994829;28;20053;-71
2022/12/30 14:12:05;;;;;;;1.60;0.47;;;8.80;99.90;;;;;;4997691;28;20041;-71
2022/12/30 14:14:41;;;;;;;4.97;0.73;;;8.80;99.90;;;;;;5014284;28;20099;-71